createdAt,value
2019-01-02T00:01:18.573Z,6.54
2019-01-02T00:03:46.894Z,6.54
2019-01-02T00:06:15.185Z,6.52
2019-01-02T00:08:43.670Z,6.50
2019-01-02T00:11:11.960Z,6.47
2019-01-02T00:13:42.005Z,6.46
2019-01-02T00:16:10.296Z,6.45
2019-01-02T00:18:40.327Z,6.44
2019-01-02T00:21:08.638Z,6.44
2019-01-02T00:23:38.660Z,6.44
2019-01-02T00:26:06.948Z,6.46
2019-01-02T00:28:35.271Z,6.49
2019-01-02T00:31:05.310Z,6.48
2019-01-02T00:33:33.608Z,6.47
2019-01-02T00:36:03.625Z,6.45
2019-01-02T00:38:31.926Z,6.42
2019-01-02T00:41:01.944Z,6.40
2019-01-02T00:43:30.266Z,6.41
2019-01-02T00:46:00.308Z,6.37
2019-01-02T00:48:28.611Z,6.33
2019-01-02T00:50:58.630Z,6.30
2019-01-02T00:53:46.381Z,6.26
2019-01-02T00:56:14.672Z,6.26
2019-01-02T00:58:42.974Z,6.22
2019-01-02T01:01:11.265Z,6.16
2019-01-02T01:03:39.564Z,6.11
2019-01-02T01:06:07.875Z,6.10
2019-01-02T01:08:36.173Z,6.10
2019-01-02T01:14:20.416Z,6.08
2019-01-02T01:16:48.702Z,6.07
2019-01-02T01:19:18.733Z,6.07
2019-01-02T01:21:47.042Z,6.04
2019-01-02T01:24:15.336Z,6.00
2019-01-02T01:26:43.633Z,5.99
2019-01-02T01:29:11.935Z,5.97
2019-01-02T01:31:41.949Z,5.98
2019-01-02T01:34:10.265Z,5.97
2019-01-02T01:36:38.549Z,5.97
2019-01-02T01:39:47.140Z,5.94
2019-01-02T01:42:15.730Z,5.91
2019-01-02T01:44:44.027Z,5.91
2019-01-02T01:47:14.038Z,5.90
2019-01-02T01:49:42.339Z,5.91
2019-01-02T01:52:10.644Z,5.93
2019-01-02T01:54:40.665Z,5.90
2019-01-02T01:57:08.955Z,5.89
2019-01-02T01:59:37.254Z,5.89
2019-01-02T02:02:05.542Z,5.89
2019-01-02T02:04:33.860Z,5.88
2019-01-02T02:07:03.878Z,5.87
2019-01-02T02:09:51.544Z,5.87
2019-01-02T02:12:19.849Z,5.88
2019-01-02T02:14:49.872Z,5.86
2019-01-02T02:17:18.174Z,5.86
2019-01-02T02:19:46.453Z,5.86
2019-01-02T02:22:16.465Z,5.89
2019-01-02T02:25:24.953Z,5.89
2019-01-02T02:27:53.262Z,5.86
2019-01-02T02:30:23.279Z,5.85
2019-01-02T02:33:10.707Z,5.84
2019-01-02T02:35:39.293Z,5.82
2019-01-02T02:38:09.307Z,5.83
2019-01-02T02:40:37.611Z,5.83
2019-01-02T02:43:05.889Z,5.83
2019-01-02T02:45:34.208Z,5.83
2019-01-02T02:50:53.096Z,5.80
2019-01-02T02:53:23.109Z,5.80
2019-01-02T02:55:53.136Z,5.79
2019-01-02T02:58:23.171Z,5.80
2019-01-02T03:01:33.311Z,5.82
2019-01-02T03:04:03.325Z,5.80
2019-01-02T03:06:33.351Z,5.78
2019-01-02T03:11:41.668Z,5.74
2019-01-02T03:14:09.946Z,5.75
2019-01-02T03:16:39.970Z,5.75
2019-01-02T03:19:10.005Z,5.75
2019-01-02T03:21:40.024Z,5.75
2019-01-02T03:24:10.035Z,5.75
2019-01-02T03:26:38.328Z,5.77
2019-01-02T03:29:06.633Z,5.76
2019-01-02T03:31:36.642Z,5.74
2019-01-02T03:34:06.672Z,5.72
2019-01-02T03:36:34.965Z,5.73
2019-01-02T03:41:42.409Z,5.72
2019-01-02T03:44:10.717Z,5.71
2019-01-02T03:46:39.026Z,5.70
2019-01-02T03:49:07.330Z,5.67
2019-01-02T03:51:35.617Z,5.66
2019-01-02T03:54:03.912Z,5.66
2019-01-02T03:56:32.219Z,5.64
2019-01-02T03:59:19.883Z,5.65
2019-01-02T04:01:48.201Z,5.66
2019-01-02T04:04:16.506Z,5.63
2019-01-02T04:06:44.798Z,5.65
2019-01-02T04:09:13.091Z,5.62
2019-01-02T04:12:00.503Z,5.64
2019-01-02T04:14:28.784Z,5.63
2019-01-02T04:16:57.070Z,5.63
2019-01-02T04:19:25.392Z,5.62
2019-01-02T04:21:53.703Z,5.61
2019-01-02T04:24:22.008Z,5.61
2019-01-02T04:27:09.726Z,5.62
2019-01-02T04:29:38.050Z,5.61
2019-01-02T04:32:06.334Z,5.61
2019-01-02T04:34:34.637Z,5.60
2019-01-02T04:37:02.923Z,5.59
2019-01-02T04:39:31.217Z,5.58
2019-01-02T04:41:59.521Z,5.59
2019-01-02T04:44:27.840Z,5.59
2019-01-02T04:46:56.125Z,5.57
2019-01-02T04:49:43.786Z,5.55
2019-01-02T04:52:12.094Z,5.55
2019-01-02T04:54:40.395Z,5.56
2019-01-02T04:57:08.680Z,5.57
2019-01-02T04:59:56.357Z,5.56
2019-01-02T05:02:24.652Z,5.56
2019-01-02T05:04:52.953Z,5.54
2019-01-02T05:07:21.235Z,5.54
2019-01-02T05:09:49.536Z,5.58
2019-01-02T05:12:17.851Z,5.59
2019-01-02T05:14:46.153Z,5.57
2019-01-02T05:17:14.467Z,5.53
2019-01-02T05:19:42.759Z,5.53
2019-01-02T05:22:11.048Z,5.54
2019-01-02T05:24:39.354Z,5.51
2019-01-02T05:27:07.663Z,5.50
2019-01-02T05:29:35.961Z,5.49
2019-01-02T05:32:04.249Z,5.50
2019-01-02T05:34:32.565Z,5.47
2019-01-02T05:37:00.873Z,5.46
2019-01-02T05:39:29.175Z,5.43
2019-01-02T05:41:57.459Z,5.42
2019-01-02T05:44:25.759Z,5.42
2019-01-02T05:46:54.039Z,5.41
2019-01-02T05:49:41.700Z,5.38
2019-01-02T05:52:09.990Z,5.40
2019-01-02T05:54:38.288Z,5.39
2019-01-02T05:57:06.569Z,5.40
2019-01-02T05:59:34.892Z,5.38
2019-01-02T06:04:50.439Z,5.33
2019-01-02T06:07:18.749Z,5.30
2019-01-02T06:12:21.462Z,5.25
2019-01-02T06:14:49.777Z,5.23
2019-01-02T06:17:18.085Z,5.21
2019-01-02T06:19:46.368Z,5.22
2019-01-02T06:22:14.670Z,5.23
2019-01-02T06:24:42.958Z,5.19
2019-01-02T06:27:11.254Z,5.19
2019-01-02T06:29:39.540Z,5.18
2019-01-02T06:32:07.869Z,5.17
2019-01-02T06:34:55.307Z,5.16
2019-01-02T06:37:23.593Z,5.17
2019-01-02T06:39:51.878Z,5.18
2019-01-02T06:42:20.172Z,5.16
2019-01-02T06:44:48.479Z,5.16
2019-01-02T06:47:36.143Z,5.18
2019-01-02T06:50:44.558Z,5.15
2019-01-02T06:53:12.849Z,5.13
2019-01-02T06:55:41.153Z,5.05
2019-01-02T06:58:09.434Z,5.03
2019-01-02T07:00:37.744Z,5.02
2019-01-02T07:03:06.038Z,5.01
2019-01-02T07:05:34.339Z,4.98
2019-01-02T07:08:02.651Z,4.93
2019-01-02T07:10:50.062Z,4.88
2019-01-02T07:13:18.366Z,4.87
2019-01-02T07:15:46.659Z,4.85
2019-01-02T07:18:14.946Z,4.83
2019-01-02T07:20:43.254Z,4.81
2019-01-02T07:23:11.557Z,4.79
2019-01-02T07:25:39.859Z,4.75
2019-01-02T07:28:08.159Z,4.75
2019-01-02T07:30:36.445Z,4.75
2019-01-02T07:33:44.949Z,4.77
2019-01-02T07:36:52.044Z,4.79
2019-01-02T07:43:12.671Z,4.70
2019-01-02T07:55:21.868Z,4.57
2019-01-02T07:58:30.304Z,4.55
2019-01-02T08:04:51.368Z,4.54
2019-01-02T08:07:58.495Z,4.54
2019-01-02T08:11:05.574Z,4.57
2019-01-02T08:14:12.678Z,4.59
2019-01-02T08:26:35.080Z,4.61
2019-01-02T08:29:42.179Z,4.60
2019-01-02T08:32:49.278Z,4.61
2019-01-02T08:35:56.367Z,4.64
2019-01-02T08:39:03.543Z,4.66
2019-01-02T08:42:10.623Z,4.77
2019-01-02T08:45:17.729Z,4.91
2019-01-02T08:51:38.593Z,5.18
2019-01-02T08:54:45.681Z,5.33
2019-01-02T09:01:06.845Z,5.54
2019-01-02T09:04:15.260Z,5.63
2019-01-02T09:13:24.049Z,5.70
2019-01-02T09:16:10.502Z,5.77
2019-01-02T09:18:44.831Z,5.79
2019-01-02T09:21:53.301Z,5.84
2019-01-02T09:25:00.399Z,5.90
2019-01-02T09:34:08.894Z,6.32
2019-01-02T09:37:16.057Z,6.46
2019-01-02T09:43:24.570Z,6.81
2019-01-02T09:46:31.898Z,6.93
2019-01-02T09:55:53.701Z,7.18
2019-01-02T10:08:03.438Z,7.27
2019-01-02T10:11:11.846Z,7.11
2019-01-02T10:14:18.931Z,7.13
2019-01-02T10:17:27.351Z,7.27
2019-01-02T10:26:49.484Z,7.49
2019-01-02T10:29:56.580Z,7.56
2019-01-02T10:33:05.065Z,7.50
2019-01-02T10:42:27.083Z,7.27
2019-01-02T10:45:34.189Z,7.19
2019-01-02T10:48:42.691Z,7.23
2019-01-02T10:51:49.780Z,7.26
2019-01-02T10:54:58.209Z,7.27
2019-01-02T10:58:05.298Z,7.25
2019-01-02T11:01:12.400Z,7.11
2019-01-02T11:04:20.874Z,7.11
2019-01-02T11:07:28.010Z,7.11
2019-01-02T11:13:36.450Z,6.99
2019-01-02T11:16:43.536Z,6.96
2019-01-02T11:19:50.638Z,6.86
2019-01-02T11:25:58.566Z,6.90
2019-01-02T11:29:07.094Z,6.92
2019-01-02T11:47:29.102Z,7.00
2019-01-02T11:49:57.299Z,7.13
2019-01-02T11:52:25.485Z,7.20
2019-01-02T11:54:53.686Z,7.29
2019-01-02T11:57:21.865Z,7.32
2019-01-02T11:59:50.065Z,7.36
2019-01-02T12:02:18.249Z,7.42
2019-01-02T12:04:46.452Z,7.53
2019-01-02T12:07:35.011Z,7.59
2019-01-02T12:13:04.314Z,7.68
2019-01-02T12:15:32.532Z,7.72
2019-01-02T12:18:00.702Z,7.76
2019-01-02T12:20:28.898Z,7.84
2019-01-02T12:22:57.085Z,7.87
2019-01-02T12:25:25.279Z,7.85
2019-01-02T12:27:53.460Z,7.82
2019-01-02T12:30:21.654Z,7.83
2019-01-02T12:32:49.842Z,7.83
2019-01-02T12:35:18.040Z,7.80
2019-01-02T12:37:46.221Z,7.75
2019-01-02T12:40:14.417Z,7.72
2019-01-02T12:42:42.607Z,7.81
2019-01-02T12:45:10.808Z,7.84
2019-01-02T12:47:39.004Z,7.85
2019-01-02T12:50:47.314Z,7.85
2019-01-02T12:53:15.498Z,7.82
2019-01-02T12:55:43.697Z,7.72
2019-01-02T12:58:11.874Z,7.68
2019-01-02T13:01:20.177Z,7.64
2019-01-02T13:04:27.155Z,7.60
2019-01-02T13:07:34.158Z,7.55
2019-01-02T13:16:43.570Z,7.55
2019-01-02T13:22:52.184Z,7.28
2019-01-02T13:29:00.856Z,7.11
2019-01-02T13:32:09.420Z,6.99
2019-01-02T13:38:30.750Z,6.89
2019-01-02T13:41:39.357Z,6.86
2019-01-02T13:48:00.184Z,6.74
2019-01-02T13:53:29.197Z,6.61
2019-01-02T13:55:57.403Z,6.58
2019-01-02T13:58:25.698Z,6.57
2019-01-02T14:00:53.920Z,6.55
2019-01-02T14:03:22.150Z,7.26
2019-01-02T14:05:50.344Z,7.97
2019-01-02T14:08:18.578Z,8.33
2019-01-02T14:10:46.782Z,8.21
2019-01-02T14:13:15.007Z,7.91
2019-01-02T14:15:43.205Z,7.65
2019-01-02T14:18:11.489Z,7.48
2019-01-02T14:20:39.696Z,7.32
2019-01-02T14:23:07.948Z,7.21
2019-01-02T14:25:36.202Z,7.02
2019-01-02T14:28:04.410Z,6.86
2019-01-02T14:30:32.691Z,6.75
2019-01-02T14:33:00.884Z,6.68
2019-01-02T14:35:29.076Z,6.63
2019-01-02T14:37:57.270Z,6.55
2019-01-02T14:40:25.454Z,6.48
2019-01-02T14:42:53.650Z,6.38
2019-01-02T14:45:21.835Z,6.32
2019-01-02T14:47:50.013Z,6.27
2019-01-02T14:50:18.210Z,6.24
2019-01-02T14:52:46.394Z,6.18
2019-01-02T14:55:34.018Z,6.16
2019-01-02T14:58:02.198Z,6.10
2019-01-02T15:00:30.393Z,6.07
2019-01-02T15:02:58.580Z,6.04
2019-01-02T15:05:26.778Z,6.00
2019-01-02T15:07:54.961Z,5.93
2019-01-02T15:10:23.157Z,5.87
2019-01-02T15:12:51.344Z,5.81
2019-01-02T15:15:19.537Z,5.76
2019-01-02T15:17:47.718Z,5.68
2019-01-02T15:20:15.913Z,5.67
2019-01-02T15:22:44.201Z,5.68
2019-01-02T15:25:12.370Z,5.70
2019-01-02T15:27:40.554Z,5.69
2019-01-02T15:30:48.864Z,5.68
2019-01-02T15:33:17.052Z,5.67
2019-01-02T15:35:48.943Z,5.65
2019-01-02T15:38:15.149Z,5.61
2019-01-02T15:40:43.357Z,5.60
2019-01-02T15:43:11.529Z,5.58
2019-01-02T15:45:39.723Z,5.56
2019-01-02T15:48:07.907Z,5.52
2019-01-02T15:50:36.106Z,5.53
2019-01-02T15:53:04.284Z,5.48
2019-01-02T15:55:32.472Z,5.42
2019-01-02T15:58:00.662Z,5.40
2019-01-02T16:00:28.853Z,5.38
2019-01-02T16:02:57.034Z,5.34
2019-01-02T16:05:25.230Z,5.33
2019-01-02T16:07:53.411Z,5.26
2019-01-02T16:10:21.591Z,5.19
2019-01-02T16:12:49.789Z,5.11
2019-01-02T16:15:17.978Z,5.06
2019-01-02T16:17:46.173Z,5.03
2019-01-02T16:20:14.367Z,5.01
2019-01-02T16:22:42.554Z,5.00
2019-01-02T16:25:10.736Z,4.96
2019-01-02T16:27:38.939Z,4.97
2019-01-02T16:33:20.856Z,4.90
2019-01-02T16:35:49.042Z,4.87
2019-01-02T16:38:17.241Z,4.88
2019-01-02T16:40:45.426Z,4.85
2019-01-02T16:43:13.622Z,4.84
2019-01-02T16:45:41.803Z,4.80
2019-01-02T16:48:50.114Z,4.77
2019-01-02T16:51:18.328Z,4.74
2019-01-02T16:53:46.510Z,4.70
2019-01-02T16:56:14.695Z,4.68
2019-01-02T16:58:42.888Z,4.68
2019-01-02T17:01:11.072Z,4.66
2019-01-02T17:03:39.266Z,4.61
2019-01-02T17:06:07.458Z,4.61
2019-01-02T17:08:35.649Z,4.59
2019-01-02T17:11:03.840Z,4.58
2019-01-02T17:13:32.037Z,4.58
2019-01-02T17:16:00.255Z,4.56
2019-01-02T17:18:28.423Z,4.56
2019-01-02T17:20:56.609Z,4.54
2019-01-02T17:23:24.796Z,4.55
2019-01-02T17:25:52.980Z,4.57
2019-01-02T17:28:21.174Z,4.55
2019-01-02T17:30:49.353Z,4.53
2019-01-02T17:33:17.556Z,4.54
2019-01-02T17:35:45.747Z,4.50
2019-01-02T17:38:13.935Z,4.49
2019-01-02T17:40:42.123Z,4.45
2019-01-02T17:43:10.322Z,4.42
2019-01-02T17:45:38.504Z,4.39
2019-01-02T17:48:06.698Z,4.39
2019-01-02T17:50:34.877Z,4.38
2019-01-02T17:53:03.079Z,4.39
2019-01-02T17:55:31.266Z,4.40
2019-01-02T17:57:59.467Z,4.39
2019-01-02T18:00:27.655Z,4.37
2019-01-02T18:02:55.853Z,4.34
2019-01-02T18:05:24.100Z,4.28
2019-01-02T18:07:52.302Z,4.23
2019-01-02T18:10:20.486Z,4.20
2019-01-02T18:12:48.684Z,4.19
2019-01-02T18:15:16.868Z,4.20
2019-01-02T18:17:45.068Z,4.20
2019-01-02T18:20:13.250Z,4.16
2019-01-02T18:22:41.519Z,4.12
2019-01-02T18:25:09.635Z,4.12
2019-01-02T18:27:37.815Z,4.10
2019-01-02T18:30:46.123Z,4.08
2019-01-02T18:33:14.319Z,4.06
2019-01-02T18:35:42.498Z,4.06
2019-01-02T18:38:10.693Z,4.07
2019-01-02T18:40:38.870Z,4.05
2019-01-02T18:43:07.073Z,4.05
2019-01-02T18:45:35.256Z,4.04
2019-01-02T18:48:03.451Z,4.02
2019-01-02T18:50:31.633Z,4.01
2019-01-02T18:52:59.813Z,3.99
2019-01-02T18:55:28.005Z,3.97
2019-01-02T18:57:56.186Z,3.97
2019-01-02T19:00:24.383Z,3.95
2019-01-02T19:02:52.566Z,3.94
2019-01-02T19:05:20.792Z,3.90
2019-01-02T19:07:48.935Z,3.88
2019-01-02T19:10:17.130Z,3.86
2019-01-02T19:12:45.314Z,3.83
2019-01-02T19:15:13.525Z,3.82
2019-01-02T19:17:41.711Z,3.82
2019-01-02T19:20:09.914Z,3.81
2019-01-02T19:22:38.104Z,3.74
2019-01-02T19:25:46.472Z,3.73
2019-01-02T19:28:14.652Z,3.70
2019-01-02T19:31:22.960Z,3.69
2019-01-02T19:33:51.163Z,3.67
2019-01-02T19:36:19.349Z,3.65
2019-01-02T19:38:47.549Z,3.63
2019-01-02T19:41:15.744Z,3.62
2019-01-02T19:43:43.931Z,3.59
2019-01-02T19:46:12.131Z,3.58
2019-01-02T19:48:40.324Z,3.54
2019-01-02T19:51:08.516Z,3.52
2019-01-02T19:53:36.698Z,3.51
2019-01-02T19:56:04.894Z,3.51
2019-01-02T19:58:33.115Z,3.51
2019-01-02T20:01:01.313Z,3.49
2019-01-02T20:03:29.500Z,3.48
2019-01-02T20:05:57.697Z,3.47
2019-01-02T20:08:25.881Z,3.45
2019-01-02T20:10:54.079Z,3.43
2019-01-02T20:13:22.252Z,3.41
2019-01-02T20:15:50.445Z,3.39
2019-01-02T20:18:18.627Z,3.38
2019-01-02T20:20:46.826Z,3.35
2019-01-02T20:23:34.430Z,3.33
2019-01-02T20:26:02.624Z,3.28
2019-01-02T20:28:30.805Z,3.24
2019-01-02T20:30:58.998Z,3.20
2019-01-02T20:33:27.179Z,3.16
2019-01-02T20:35:55.376Z,3.14
2019-01-02T20:38:23.563Z,3.12
2019-01-02T20:40:51.781Z,3.10
2019-01-02T20:43:19.954Z,3.07
2019-01-02T20:45:48.152Z,3.06
2019-01-02T20:51:03.598Z,3.04
2019-01-02T20:53:31.773Z,3.04
2019-01-02T20:55:59.971Z,3.03
2019-01-02T20:58:28.154Z,3.00
2019-01-02T21:00:56.347Z,2.97
2019-01-02T21:03:24.544Z,2.94
2019-01-02T21:05:52.806Z,2.89
2019-01-02T21:08:20.993Z,2.85
2019-01-02T21:10:49.198Z,2.81
2019-01-02T21:13:17.365Z,2.77
2019-01-02T21:15:45.605Z,2.76
2019-01-02T21:18:13.790Z,2.73
2019-01-02T21:20:41.977Z,2.71
2019-01-02T21:23:10.170Z,2.69
2019-01-02T21:28:39.328Z,2.70
2019-01-02T21:31:07.510Z,2.69
2019-01-02T21:33:35.713Z,2.70
2019-01-02T21:36:03.896Z,2.68
2019-01-02T21:38:32.120Z,2.67
2019-01-02T21:41:00.301Z,2.65
2019-01-02T21:43:28.503Z,2.62
2019-01-02T21:45:56.688Z,2.60
2019-01-02T21:48:24.885Z,2.58
2019-01-02T21:50:53.062Z,2.53
2019-01-02T21:53:21.259Z,2.51
2019-01-02T21:55:49.441Z,2.48
2019-01-02T21:58:17.630Z,2.43
2019-01-02T22:00:45.883Z,2.38
2019-01-02T22:03:14.078Z,2.34
2019-01-02T22:05:42.263Z,2.31
2019-01-02T22:08:10.458Z,2.28
2019-01-02T22:10:38.643Z,2.26
2019-01-02T22:13:06.839Z,2.25
2019-01-02T22:15:35.035Z,2.20
2019-01-02T22:18:03.223Z,2.19
2019-01-02T22:20:31.405Z,2.17
2019-01-02T22:22:59.604Z,2.16
2019-01-02T22:25:27.789Z,2.14
2019-01-02T22:27:55.985Z,2.12
2019-01-02T22:30:24.171Z,2.09
2019-01-02T22:32:52.404Z,2.07
2019-01-02T22:35:20.593Z,2.08
2019-01-02T22:37:48.778Z,2.07
2019-01-02T22:40:16.977Z,2.05
2019-01-02T22:42:45.163Z,2.04
2019-01-02T22:45:13.361Z,1.99
2019-01-02T22:47:41.545Z,1.96
2019-01-02T22:50:09.744Z,1.94
2019-01-02T22:52:37.924Z,1.90
2019-01-02T22:55:06.120Z,1.88
2019-01-02T22:57:34.313Z,1.85
2019-01-02T23:00:02.517Z,1.82
2019-01-02T23:05:38.694Z,1.80
2019-01-02T23:08:26.025Z,1.77
2019-01-02T23:11:13.325Z,1.75
2019-01-02T23:14:00.631Z,1.73
2019-01-02T23:16:47.932Z,1.71
2019-01-02T23:19:35.242Z,1.69
2019-01-02T23:22:22.548Z,1.66
2019-01-02T23:25:09.853Z,1.62
2019-01-02T23:27:57.147Z,1.60
2019-01-02T23:30:44.461Z,1.56
2019-01-02T23:33:31.758Z,1.53
2019-01-02T23:36:19.092Z,1.49
2019-01-02T23:39:06.686Z,1.42
2019-01-02T23:41:53.994Z,1.38
2019-01-02T23:47:16.635Z,1.34
2019-01-02T23:50:03.950Z,1.32
2019-01-02T23:52:51.246Z,1.31
2019-01-02T23:55:38.563Z,1.30
2019-01-02T23:58:25.864Z,1.29
